Time;durP1;ratioP1;P1;durP2;ratioP2;P2;SDS_P1;SDS_P2;PMS_P1;PMS_P2;Temp;Humidity;BMP_temperature;BMP_pressure;BME280_temperature;BME280_humidity;BME280_pressure;Samples;Min_cycle;Max_cycle;Signal;HPM_P1;HPM_P2
2023/07/10 00:00:24;;;;;;;0.20;0.20;;;;;;;25.05;41.31;97051.13;29395;289;63016;-52
2023/07/10 00:00:58;;;;;;;0.20;0.20;;;;;;;25.04;41.24;97055.06;29395;294;63009;-63
2023/07/10 00:01:30;;;;;;;0.25;0.25;;;;;;;25.01;41.40;97044.75;29395;290;63008;-65
2023/07/10 00:02:01;;;;;;;0.20;0.20;;;;;;;25.00;41.05;97045.91;29395;202;63009;-53
2023/07/10 00:02:32;;;;;;;0.20;0.20;;;;;;;24.96;40.98;97047.84;29394;278;64009;-52
2023/07/10 00:03:09;;;;;;;0.20;0.20;;;;;;;24.97;41.02;97049.47;29395;283;63009;-53
2023/07/10 00:03:41;;;;;;;0.20;0.20;;;;;;;24.96;40.96;97047.84;29395;239;63004;-53
2023/07/10 00:04:19;;;;;;;0.20;0.20;;;;;;;24.94;41.63;97051.00;29395;200;63009;-53
2023/07/10 00:04:51;;;;;;;0.20;0.20;;;;;;;24.94;41.39;97047.44;29395;244;63005;-53
2023/07/10 00:05:22;;;;;;;0.20;0.20;;;;;;;24.94;41.26;97050.22;29394;212;64009;-53
2023/07/10 00:05:54;;;;;;;0.20;0.20;;;;;;;24.95;41.29;97049.03;29395;230;63005;-53
2023/07/10 00:06:25;;;;;;;0.20;0.20;;;;;;;24.95;41.67;97043.50;29395;210;63009;-53
2023/07/10 00:06:57;;;;;;;0.20;0.20;;;;;;;24.94;41.28;97050.22;29394;202;64009;-64
2023/07/10 00:07:29;;;;;;;0.20;0.20;;;;;;;24.93;41.42;97043.06;29395;255;63009;-53
2023/07/10 00:08:00;;;;;;;0.20;0.20;;;;;;;24.93;41.30;97037.53;29395;256;63005;-53
2023/07/10 00:08:31;;;;;;;0.20;0.20;;;;;;;24.94;41.34;97045.47;29395;296;63009;-53
2023/07/10 00:09:03;;;;;;;0.20;0.20;;;;;;;24.96;41.47;97042.31;29395;255;63000;-53
2023/07/10 00:09:35;;;;;;;0.20;0.20;;;;;;;24.95;41.28;97046.25;29395;247;63009;-53
2023/07/10 00:10:12;;;;;;;0.20;0.20;;;;;;;24.93;41.17;97041.09;29395;196;63004;-53
2023/07/10 00:10:44;;;;;;;0.20;0.20;;;;;;;24.93;41.28;97037.53;29395;275;63009;-52
2023/07/10 00:11:31;;;;;;;0.20;0.20;;;;;;;24.93;41.09;97034.75;29394;248;64008;-53
2023/07/10 00:12:07;;;;;;;0.20;0.20;;;;;;;24.95;41.22;97037.94;29395;199;63009;-52
2023/07/10 00:12:39;;;;;;;0.20;0.20;;;;;;;24.95;41.32;97035.16;29395;303;63005;-53
2023/07/10 00:13:12;;;;;;;0.20;0.20;;;;;;;24.95;41.54;97044.28;29395;211;63009;-53
2023/07/10 00:13:44;;;;;;;0.20;0.20;;;;;;;24.94;41.15;97028.00;29395;212;63005;-52
2023/07/10 00:14:19;;;;;;;0.20;0.20;;;;;;;24.94;41.49;97033.56;29395;202;63009;-53
2023/07/10 00:14:53;;;;;;;0.20;0.20;;;;;;;24.95;41.02;97035.16;29395;214;63005;-52
2023/07/10 00:15:24;;;;;;;0.20;0.20;;;;;;;24.97;41.18;97043.91;29395;208;63009;-53
2023/07/10 00:15:56;;;;;;;0.20;0.20;;;;;;;24.94;40.79;97033.56;29395;240;63004;-53
2023/07/10 00:16:31;;;;;;;0.20;0.20;;;;;;;24.92;40.94;97036.72;29394;209;64013;-63
2023/07/10 00:17:03;;;;;;;0.20;0.20;;;;;;;24.90;41.09;97038.28;29395;291;63004;-52
2023/07/10 00:17:35;;;;;;;0.20;0.20;;;;;;;24.89;41.51;97037.50;29395;231;63009;-52
2023/07/10 00:18:16;;;;;;;0.20;0.20;;;;;;;24.89;41.23;97037.50;29395;205;63004;-53
2023/07/10 00:18:48;;;;;;;0.20;0.20;;;;;;;24.88;41.22;97035.09;29417;260;63008;-53
2023/07/10 00:19:20;;;;;;;0.20;0.20;;;;;;;24.87;41.18;97039.03;29395;230;63005;-52
2023/07/10 00:19:51;;;;;;;0.20;0.20;;;;;;;24.87;41.32;97042.63;29395;218;63009;-54
2023/07/10 00:20:25;;;;;;;0.20;0.20;;;;;;;24.86;41.19;97037.44;29394;234;64005;-64
2023/07/10 00:20:56;;;;;;;0.30;0.30;;;;;;;24.86;41.46;97037.44;29395;210;63009;-53
2023/07/10 00:21:28;;;;;;;0.20;0.20;;;;;;;24.86;41.38;97040.22;29394;275;64009;-65
2023/07/10 00:21:59;;;;;;;0.20;0.20;;;;;;;24.85;41.33;97039.44;29395;278;63005;-53
2023/07/10 00:22:30;;;;;;;0.20;0.20;;;;;;;24.84;41.24;97040.59;29395;202;63005;-52
2023/07/10 00:23:01;;;;;;;0.20;0.20;;;;;;;24.83;41.86;97038.22;29395;219;63009;-55
2023/07/10 00:23:33;;;;;;;0.20;0.20;;;;;;;24.81;41.17;97040.56;29395;284;63004;-53
2023/07/10 00:24:05;;;;;;;0.20;0.20;;;;;;;24.80;41.74;97038.97;29395;222;63009;-53
2023/07/10 00:24:36;;;;;;;0.20;0.20;;;;;;;24.79;41.40;97038.19;29395;213;63004;-52
2023/07/10 00:25:09;;;;;;;0.20;0.20;;;;;;;24.79;41.34;97037.38;29395;251;63009;-53
2023/07/10 00:25:41;;;;;;;0.20;0.20;;;;;;;24.78;41.33;97042.13;29395;202;63004;-52
2023/07/10 00:26:26;;;;;;;0.20;0.20;;;;;;;24.76;41.53;97038.13;29395;225;63008;-53
2023/07/10 00:26:57;;;;;;;0.30;0.30;;;;;;;24.75;41.46;97036.53;29394;228;64009;-53
2023/07/10 00:27:28;;;;;;;0.22;0.22;;;;;;;24.75;41.67;97047.62;29395;202;63009;-64
2023/07/10 00:28:00;;;;;;;0.20;0.20;;;;;;;24.73;41.44;97043.28;29395;228;63005;-53
2023/07/10 00:28:31;;;;;;;0.20;0.20;;;;;;;24.71;42.20;97048.41;29395;245;63009;-54
2023/07/10 00:29:16;;;;;;;0.20;0.20;;;;;;;24.70;41.56;97052.34;29395;291;63005;-55
2023/07/10 00:29:47;;;;;;;0.20;0.20;;;;;;;24.69;41.85;97047.19;29395;206;63009;-52
2023/07/10 00:30:23;;;;;;;0.20;0.20;;;;;;;24.67;41.81;97044.78;29395;202;63004;-54
2023/07/10 00:30:54;;;;;;;0.20;0.20;;;;;;;24.66;41.56;97054.28;29394;212;64013;-52
2023/07/10 00:31:25;;;;;;;0.20;0.20;;;;;;;24.64;41.55;97059.41;29395;203;63004;-52
2023/07/10 00:32:02;;;;;;;0.20;0.20;;;;;;;24.64;41.89;97062.19;29395;198;63009;-53
2023/07/10 00:32:33;;;;;;;0.20;0.20;;;;;;;24.62;41.64;97064.56;29395;240;63004;-53
2023/07/10 00:33:09;;;;;;;0.20;0.20;;;;;;;24.63;42.02;97073.66;29395;293;63008;-53
2023/07/10 00:33:40;;;;;;;0.20;0.20;;;;;;;24.62;41.76;97067.31;29395;241;63000;-53
2023/07/10 00:34:16;;;;;;;0.30;0.30;;;;;;;24.62;41.90;97083.97;29394;202;64013;-60
2023/07/10 00:34:51;;;;;;;0.20;0.20;;;;;;;24.65;41.74;97076.88;29394;221;64009;-53
2023/07/10 00:35:25;;;;;;;0.30;0.30;;;;;;;24.65;41.88;97083.22;29395;241;63027;-52
2023/07/10 00:35:57;;;;;;;0.30;0.30;;;;;;;24.67;41.84;97078.09;29395;203;63005;-62
2023/07/10 00:36:38;;;;;;;0.20;0.20;;;;;;;24.66;42.25;97072.91;29394;203;64009;-53
2023/07/10 00:37:10;;;;;;;;;;;;;;;24.64;42.22;97076.06;29996;982;6000;-53
2023/07/10 00:37:41;;;;;;;0.20;0.20;;;;;;;24.61;41.94;97065.72;29399;226;64009;-53
2023/07/10 00:38:19;;;;;;;0.30;0.30;;;;;;;24.60;41.75;97064.13;29395;261;63009;-53
2023/07/10 00:38:51;;;;;;;0.30;0.30;;;;;;;24.58;42.07;97068.50;29395;234;63004;-63
2023/07/10 00:39:28;;;;;;;0.30;0.30;;;;;;;24.56;42.03;97068.06;29395;269;63009;-53
2023/07/10 00:40:00;;;;;;;0.30;0.30;;;;;;;24.52;42.50;97073.56;29395;226;63004;-53
2023/07/10 00:40:33;;;;;;;0.30;0.30;;;;;;;24.48;43.43;97072.72;29395;218;63008;-53
2023/07/10 00:41:09;;;;;;;0.25;0.25;;;;;;;24.43;43.14;97075.84;29395;203;63005;-53
2023/07/10 00:41:44;;;;;;;0.20;0.20;;;;;;;24.36;43.81;97075.75;29395;243;63009;-54
2023/07/10 00:42:20;;;;;;;0.30;0.30;;;;;;;24.31;43.58;97073.31;29395;216;63011;-64
2023/07/10 00:42:58;;;;;;;0.30;0.30;;;;;;;24.27;43.58;97069.69;29394;279;64013;-65
2023/07/10 00:43:40;;;;;;;0.30;0.30;;;;;;;24.23;43.96;97066.87;29395;216;63005;-53
2023/07/10 00:44:13;;;;;;;0.30;0.30;;;;;;;24.22;43.50;97059.72;29395;216;63009;-53
2023/07/10 00:44:51;;;;;;;0.20;0.20;;;;;;;24.23;43.46;97060.53;29394;235;64009;-53
2023/07/10 00:45:23;;;;;;;0.30;0.30;;;;;;;24.22;43.37;97045.06;29395;231;63009;-52
2023/07/10 00:45:58;;;;;;;0.30;0.30;;;;;;;24.21;43.60;97057.34;29395;226;63004;-52
2023/07/10 00:46:37;;;;;;;0.20;0.20;;;;;;;24.19;43.40;97059.69;29394;247;64013;-52
2023/07/10 00:47:26;;;;;;;0.20;0.20;;;;;;;24.14;43.67;97051.69;29395;205;63004;-65
2023/07/10 00:48:40;;;;;;;0.30;0.30;;;;;;;24.10;43.74;97050.84;29395;264;63008;-52
2023/07/10 00:49:29;;;;;;;0.20;0.20;;;;;;;24.09;44.05;97054.81;29395;284;63005;-53
2023/07/10 00:50:28;;;;;;;0.30;0.30;;;;;;;24.03;44.63;97062.66;29394;209;64014;-64
2023/07/10 00:51:05;;;;;;;0.30;0.30;;;;;;;23.98;44.32;97066.53;29394;196;64005;-53
2023/07/10 00:51:44;;;;;;;0.30;0.30;;;;;;;23.94;43.95;97065.69;29395;219;63009;-53
2023/07/10 00:52:30;;;;;;;0.30;0.30;;;;;;;23.91;44.60;97068.44;29395;209;63005;-52
2023/07/10 00:53:08;;;;;;;0.20;0.20;;;;;;;23.89;44.68;97068.81;29395;222;63021;-53
2023/07/10 00:53:43;;;;;;;0.30;0.30;;;;;;;23.87;44.73;97073.94;29395;226;63004;-53
2023/07/10 00:54:34;;;;;;;0.20;0.20;;;;;;;23.85;45.15;97081.03;29395;221;63009;-53
2023/07/10 00:55:29;;;;;;;0.30;0.30;;;;;;;23.82;44.88;97079.78;29394;219;64009;-53
2023/07/10 00:56:02;;;;;;;0.30;0.30;;;;;;;23.80;44.89;97073.03;29395;198;63019;-53
2023/07/10 00:56:40;;;;;;;0.20;0.20;;;;;;;23.78;44.86;97070.62;29395;215;63005;-53
2023/07/10 00:57:28;;;;;;;0.30;0.30;;;;;;;23.75;45.21;97078.88;29395;206;63019;-65
2023/07/10 00:58:24;;;;;;;0.30;0.30;;;;;;;23.72;45.86;97085.97;29395;237;63005;-53
2023/07/10 00:58:56;;;;;;;0.30;0.30;;;;;;;23.69;45.59;97090.28;29394;218;64013;-53
2023/07/10 00:59:29;;;;;;;0.30;0.30;;;;;;;23.67;45.40;97083.53;29395;235;63017;-51
2023/07/10 01:00:14;;;;;;;0.30;0.30;;;;;;;23.65;45.62;97088.63;29395;248;63012;-53
2023/07/10 01:01:23;;;;;;;0.30;0.30;;;;;;;23.59;46.04;97087.34;29395;264;63004;-53
2023/07/10 01:02:20;;;;;;;0.30;0.30;;;;;;;23.54;46.46;97096.00;29395;281;63009;-53
2023/07/10 01:02:51;;;;;;;0.20;0.20;;;;;;;23.52;46.13;97095.53;29394;214;64008;-63
2023/07/10 01:03:24;;;;;;;0.20;0.20;;;;;;;23.50;45.96;97101.47;29395;225;63008;-53
2023/07/10 01:03:57;;;;;;;0.30;0.30;;;;;;;23.50;45.61;97107.00;29395;223;63005;-53
2023/07/10 01:04:29;;;;;;;0.20;0.20;;;;;;;23.49;46.32;97104.59;29395;198;63009;-63
2023/07/10 01:05:03;;;;;;;0.20;0.20;;;;;;;23.47;46.34;97104.16;29394;228;64009;-53
2023/07/10 01:05:35;;;;;;;0.20;0.20;;;;;;;23.48;46.53;97103.00;29395;226;63009;-53
2023/07/10 01:06:20;;;;;;;0.20;0.20;;;;;;;23.47;46.12;97101.41;29395;239;63005;-53
2023/07/10 01:06:53;;;;;;;0.20;0.20;;;;;;;23.46;46.28;97102.56;29394;207;64013;-53
2023/07/10 01:07:27;;;;;;;0.22;0.22;;;;;;;23.47;46.07;97101.41;29395;266;63005;-53
2023/07/10 01:08:01;;;;;;;0.20;0.20;;;;;;;23.45;47.64;97103.75;29395;233;63009;-53
2023/07/10 01:08:32;;;;;;;0.20;0.20;;;;;;;23.40;46.86;97108.41;29395;220;63004;-54
2023/07/10 01:09:08;;;;;;;0.20;0.20;;;;;;;23.37;47.00;97111.94;29395;259;63013;-53
2023/07/10 01:09:43;;;;;;;0.20;0.20;;;;;;;23.37;46.53;97105.59;29394;205;64009;-54
2023/07/10 01:10:14;;;;;;;0.20;0.20;;;;;;;23.37;47.04;97114.69;29395;228;63009;-53
2023/07/10 01:10:46;;;;;;;0.20;0.20;;;;;;;23.36;46.61;97113.09;29395;225;63004;-53
2023/07/10 01:11:18;;;;;;;0.20;0.20;;;;;;;23.37;46.57;97113.91;29394;210;64014;-53
2023/07/10 01:11:50;;;;;;;0.20;0.20;;;;;;;23.37;46.87;97123.00;29395;219;63010;-53
2023/07/10 01:12:21;;;;;;;0.20;0.20;;;;;;;23.37;46.88;97123.00;29395;227;63009;-53
2023/07/10 01:12:53;;;;;;;0.30;0.30;;;;;;;23.37;46.81;97119.44;29395;197;63007;-53
2023/07/10 01:13:24;;;;;;;0.20;0.20;;;;;;;23.36;47.17;97124.16;29395;247;63009;-53
2023/07/10 01:13:58;;;;;;;0.20;0.20;;;;;;;23.35;46.72;97119.81;29395;246;63005;-53
2023/07/10 01:14:36;;;;;;;0.20;0.20;;;;;;;23.36;47.59;97126.94;29395;222;63009;-53
2023/07/10 01:15:10;;;;;;;0.20;0.20;;;;;;;23.36;47.93;97124.16;29395;217;63005;-65
2023/07/10 01:15:41;;;;;;;0.30;0.30;;;;;;;23.35;47.54;97122.56;29395;317;63009;-53
2023/07/10 01:16:13;;;;;;;0.20;0.20;;;;;;;23.36;47.54;97129.72;29395;234;63004;-53
2023/07/10 01:16:45;;;;;;;0.20;0.20;;;;;;;23.37;47.83;97131.31;29394;230;64013;-52
2023/07/10 01:17:16;;;;;;;0.20;0.20;;;;;;;23.36;47.80;97129.72;29395;220;63000;-54
2023/07/10 01:17:48;;;;;;;0.25;0.25;;;;;;;23.38;48.21;97132.91;29395;225;63009;-53
2023/07/10 01:18:24;;;;;;;0.20;0.20;;;;;;;23.39;48.68;97137.28;29395;212;63004;-53
2023/07/10 01:18:56;;;;;;;0.20;0.20;;;;;;;23.42;48.96;97137.72;29395;253;63009;-53
2023/07/10 01:19:28;;;;;;;0.20;0.20;;;;;;;23.43;48.75;97139.31;29395;268;63005;-55
2023/07/10 01:20:24;;;;;;;0.20;0.20;;;;;;;23.43;48.47;97137.34;29395;254;63009;-54
2023/07/10 01:21:33;;;;;;;0.20;0.20;;;;;;;23.44;48.42;97146.44;29395;207;63005;-53
2023/07/10 01:22:09;;;;;;;0.20;0.20;;;;;;;23.44;48.96;97151.97;29394;214;64013;-53
2023/07/10 01:22:40;;;;;;;0.20;0.20;;;;;;;23.44;48.80;97144.47;29395;220;63005;-53
2023/07/10 01:23:12;;;;;;;0.20;0.20;;;;;;;23.46;49.10;97149.66;29395;265;63009;-53
2023/07/10 01:23:43;;;;;;;0.28;0.28;;;;;;;23.47;48.87;97154.00;29395;262;63011;-53
2023/07/10 01:24:14;;;;;;;0.20;0.20;;;;;;;23.50;49.87;97153.28;29394;212;64009;-53
2023/07/10 01:24:52;;;;;;;0.30;0.30;;;;;;;23.52;50.30;97153.72;29395;218;63004;-64
2023/07/10 01:25:23;;;;;;;0.30;0.30;;;;;;;23.52;50.45;97153.72;29395;196;63009;-53
2023/07/10 01:26:00;;;;;;;0.20;0.20;;;;;;;23.52;49.47;97154.50;29395;228;63008;-53
2023/07/10 01:26:34;;;;;;;0.30;0.30;;;;;;;23.54;49.09;97145.88;29394;241;64005;-53
2023/07/10 01:27:07;;;;;;;0.20;0.20;;;;;;;23.55;50.00;97150.22;29395;219;63005;-64
2023/07/10 01:27:38;;;;;;;0.20;0.20;;;;;;;23.55;49.49;97147.47;29395;245;63027;-54
2023/07/10 01:28:16;;;;;;;0.20;0.20;;;;;;;23.56;49.41;97149.06;29395;250;63005;-53
2023/07/10 01:28:47;;;;;;;0.20;0.20;;;;;;;23.56;49.65;97143.53;29395;221;63009;-63
2023/07/10 01:29:51;;;;;;;0.30;0.30;;;;;;;23.53;51.46;97150.59;29395;213;63005;-53
2023/07/10 01:30:33;;;;;;;0.20;0.20;;;;;;;23.53;50.46;97155.34;29394;197;64013;-64
2023/07/10 01:31:09;;;;;;;0.20;0.20;;;;;;;23.53;50.80;97155.34;29394;202;64009;-53
2023/07/10 01:31:42;;;;;;;0.20;0.20;;;;;;;23.53;50.13;97149.81;29395;262;63009;-53
2023/07/10 01:32:17;;;;;;;0.30;0.30;;;;;;;23.53;50.09;97152.56;29395;215;63004;-63
2023/07/10 01:32:52;;;;;;;0.20;0.20;;;;;;;23.54;50.77;97151.41;29395;218;63017;-55
2023/07/10 01:33:28;;;;;;;0.20;0.20;;;;;;;23.53;50.85;97155.34;29395;222;63004;-54
2023/07/10 01:34:04;;;;;;;0.30;0.30;;;;;;;23.52;50.30;97148.16;29395;212;63009;-52
2023/07/10 01:34:39;;;;;;;0.30;0.30;;;;;;;23.52;50.15;97148.16;29395;207;63005;-63
2023/07/10 01:35:17;;;;;;;0.22;0.22;;;;;;;23.53;50.17;97145.06;29395;215;63009;-52
2023/07/10 01:35:54;;;;;;;0.30;0.30;;;;;;;23.53;49.98;97145.06;29394;263;64009;-53
2023/07/10 01:36:31;;;;;;;0.20;0.20;;;;;;;23.52;51.06;97148.16;29395;289;63009;-63
2023/07/10 01:37:05;;;;;;;0.20;0.20;;;;;;;23.50;50.27;97139.44;29395;224;63005;-53
2023/07/10 01:37:37;;;;;;;0.30;0.30;;;;;;;23.49;50.44;97144.16;29395;227;63009;-64
2023/07/10 01:38:12;;;;;;;0.30;0.30;;;;;;;23.49;50.55;97140.59;29395;232;63008;-54
2023/07/10 01:38:49;;;;;;;0.20;0.20;;;;;;;23.49;50.77;97140.59;29395;202;63009;-54
2023/07/10 01:39:32;;;;;;;0.30;0.30;;;;;;;23.46;50.79;97144.91;29394;218;64009;-53
2023/07/10 01:40:05;;;;;;;0.30;0.30;;;;;;;23.46;50.82;97155.19;29395;233;63008;-55
2023/07/10 01:40:39;;;;;;;0.30;0.30;;;;;;;23.45;51.16;97153.59;29395;282;63004;-53
2023/07/10 01:41:36;;;;;;;0.30;0.30;;;;;;;23.43;50.75;97155.91;29395;197;63023;-53
2023/07/10 01:42:08;;;;;;;0.30;0.30;;;;;;;23.42;51.34;97154.31;29395;210;63015;-53
2023/07/10 01:42:39;;;;;;;0.20;0.20;;;;;;;23.40;52.95;97163.78;29395;214;63009;-63
2023/07/10 01:43:10;;;;;;;0.20;0.20;;;;;;;23.37;52.37;97161.75;29395;230;63005;-64
2023/07/10 01:43:45;;;;;;;0.20;0.20;;;;;;;23.35;51.74;97150.25;29394;226;64013;-54
2023/07/10 01:44:26;;;;;;;0.20;0.20;;;;;;;23.34;52.06;97148.66;29395;196;63005;-53
2023/07/10 01:44:57;;;;;;;;;;;;;;;23.32;53.73;97155.72;29996;983;6004;-53
2023/07/10 01:45:42;;;;;;;0.30;0.30;;;;;;;23.27;52.88;97153.28;29422;212;63009;-53
2023/07/10 01:46:22;;;;;;;0.20;0.20;;;;;;;23.19;52.55;97143.25;29395;214;63004;-53
2023/07/10 01:46:56;;;;;;;0.30;0.30;;;;;;;23.21;52.75;97144.50;29377;234;125009;-53
2023/07/10 01:47:28;;;;;;;0.30;0.30;;;;;;;23.20;52.85;97142.09;29373;260;63010;-64
2023/07/10 01:47:59;;;;;;;0.30;0.30;;;;;;;23.17;52.56;97142.81;29395;227;63008;-53
2023/07/10 01:48:31;;;;;;;0.30;0.30;;;;;;;23.15;52.71;97134.87;29395;268;63010;-53
2023/07/10 01:49:04;;;;;;;0.30;0.30;;;;;;;23.15;52.37;97139.62;29394;213;64014;-63
2023/07/10 01:49:45;;;;;;;0.20;0.20;;;;;;;23.14;52.42;97125.00;29395;202;63005;-53
2023/07/10 01:50:17;;;;;;;0.20;0.20;;;;;;;23.15;52.27;97128.56;29395;198;63009;-53
2023/07/10 01:50:48;;;;;;;0.20;0.20;;;;;;;23.16;52.39;97135.69;29395;241;63005;-64
2023/07/10 01:51:21;;;;;;;0.20;0.20;;;;;;;23.16;52.18;97130.97;29395;234;63015;-52
2023/07/10 01:51:55;;;;;;;0.20;0.20;;;;;;;23.17;52.49;97123.44;29395;243;63005;-53
2023/07/10 01:52:26;;;;;;;0.30;0.30;;;;;;;23.17;52.97;97131.75;29395;294;63009;-54
2023/07/10 01:52:58;;;;;;;0.30;0.30;;;;;;;23.16;52.69;97130.16;29395;198;63011;-53
2023/07/10 01:53:29;;;;;;;0.30;0.30;;;;;;;23.15;52.77;97126.59;29395;224;63009;-53
2023/07/10 01:54:03;;;;;;;0.30;0.30;;;;;;;23.15;52.81;97129.34;29395;258;63004;-53
2023/07/10 01:54:35;;;;;;;0.25;0.25;;;;;;;23.15;52.81;97129.34;29394;215;64013;-53
2023/07/10 01:55:08;;;;;;;0.30;0.30;;;;;;;23.15;52.90;97132.12;29395;196;63004;-53
2023/07/10 01:55:43;;;;;;;0.30;0.30;;;;;;;23.15;52.74;97123.81;29395;234;63008;-53
2023/07/10 01:56:18;;;;;;;0.30;0.30;;;;;;;23.15;52.67;97123.03;29395;267;63001;-65
2023/07/10 01:56:49;;;;;;;0.22;0.22;;;;;;;23.15;52.69;97120.25;29395;228;63009;-52
2023/07/10 01:57:23;;;;;;;0.68;0.68;;;;;;;23.16;52.70;97124.62;29395;226;63005;-53
2023/07/10 01:57:54;;;;;;;0.30;0.30;;;;;;;23.15;52.53;97123.81;29395;197;63009;-52
2023/07/10 01:58:26;;;;;;;0.30;0.30;;;;;;;23.16;52.68;97119.87;29395;198;63005;-55
2023/07/10 01:58:57;;;;;;;0.30;0.30;;;;;;;23.15;52.89;97118.28;29395;208;63009;-53
2023/07/10 01:59:29;;;;;;;0.20;0.20;;;;;;;23.16;52.87;97119.09;29395;226;63005;-52
2023/07/10 02:00:00;;;;;;;0.20;0.20;;;;;;;23.15;52.97;97118.28;29394;212;64013;-52
2023/07/10 02:00:32;;;;;;;0.20;0.20;;;;;;;23.15;53.03;97117.50;29395;213;63004;-52
2023/07/10 02:01:03;;;;;;;0.20;0.20;;;;;;;23.14;52.49;97115.88;29395;215;63009;-52
2023/07/10 02:01:35;;;;;;;0.20;0.20;;;;;;;23.13;53.05;97109.53;29395;231;63001;-52
2023/07/10 02:02:07;;;;;;;0.20;0.20;;;;;;;23.14;52.98;97111.16;29395;213;63009;-53
2023/07/10 02:02:38;;;;;;;0.20;0.20;;;;;;;23.12;53.03;97107.94;29395;234;63004;-53
2023/07/10 02:03:09;;;;;;;0.20;0.20;;;;;;;23.13;53.11;97115.09;29395;211;63008;-53
2023/07/10 02:03:41;;;;;;;0.20;0.20;;;;;;;23.13;53.01;97105.97;29395;218;63012;-53
2023/07/10 02:04:13;;;;;;;0.20;0.20;;;;;;;23.13;53.32;97115.09;29395;256;63020;-53
2023/07/10 02:04:44;;;;;;;0.20;0.20;;;;;;;23.13;53.40;97120.63;29395;198;63005;-62
2023/07/10 02:05:15;;;;;;;0.20;0.20;;;;;;;23.12;53.56;97121.00;29394;263;64013;-53
2023/07/10 02:05:46;;;;;;;0.20;0.20;;;;;;;23.11;53.98;97111.87;29395;216;63005;-54
2023/07/10 02:06:18;;;;;;;0.20;0.20;;;;;;;23.11;53.34;97117.41;29394;214;64013;-54
2023/07/10 02:06:54;;;;;;;0.20;0.20;;;;;;;23.11;53.81;97117.41;29395;242;63005;-54
2023/07/10 02:07:25;;;;;;;0.20;0.20;;;;;;;23.10;53.37;97115.03;29395;216;63009;-53
2023/07/10 02:07:57;;;;;;;0.20;0.20;;;;;;;23.10;54.02;97118.59;29395;225;63004;-53
2023/07/10 02:08:28;;;;;;;0.20;0.20;;;;;;;23.10;53.60;97126.09;29395;208;63009;-53
2023/07/10 02:09:00;;;;;;;0.30;0.30;;;;;;;23.08;53.96;97122.88;29395;213;63004;-64
2023/07/10 02:09:32;;;;;;;0.20;0.20;;;;;;;23.08;53.73;97122.88;29395;236;63009;-53
2023/07/10 02:10:04;;;;;;;0.20;0.20;;;;;;;23.07;54.00;97122.09;29395;208;63004;-53
2023/07/10 02:10:35;;;;;;;0.20;0.20;;;;;;;23.07;55.01;97127.63;29395;213;63008;-53
2023/07/10 02:11:08;;;;;;;0.20;0.20;;;;;;;23.05;55.13;97124.44;29395;224;63005;-53
2023/07/10 02:11:40;;;;;;;0.20;0.20;;;;;;;23.03;54.45;97126.75;29394;205;64014;-53
2023/07/10 02:12:11;;;;;;;0.20;0.20;;;;;;;23.03;54.72;97126.75;29395;265;63005;-53
2023/07/10 02:12:42;;;;;;;0.20;0.20;;;;;;;23.04;54.75;97128.34;29395;202;63016;-53
2023/07/10 02:13:13;;;;;;;0.20;0.20;;;;;;;23.03;54.46;97129.53;29395;293;63008;-53
2023/07/10 02:13:45;;;;;;;0.20;0.20;;;;;;;23.02;54.04;97128.72;29395;207;63009;-64
2023/07/10 02:14:17;;;;;;;0.20;0.20;;;;;;;23.02;54.70;97130.69;29395;216;63005;-65
2023/07/10 02:14:48;;;;;;;0.20;0.20;;;;;;;23.01;54.32;97124.34;29395;222;63009;-53
2023/07/10 02:15:19;;;;;;;0.20;0.20;;;;;;;23.02;54.87;97127.94;29395;212;63004;-53
2023/07/10 02:15:53;;;;;;;0.20;0.20;;;;;;;22.99;54.66;97123.12;29395;232;63009;-54
2023/07/10 02:16:25;;;;;;;0.20;0.20;;;;;;;22.97;56.23;97133.75;29395;248;63004;-53
2023/07/10 02:16:59;;;;;;;0.20;0.20;;;;;;;22.95;54.93;97120.28;29394;261;64013;-53
2023/07/10 02:17:30;;;;;;;0.22;0.22;;;;;;;22.94;55.10;97126.19;29395;252;63004;-54
2023/07/10 02:18:01;;;;;;;0.20;0.20;;;;;;;22.94;55.36;97123.44;29395;214;63008;-53
2023/07/10 02:18:32;;;;;;;0.20;0.20;;;;;;;22.93;55.79;97127.34;29395;246;63005;-53
2023/07/10 02:19:05;;;;;;;0.20;0.20;;;;;;;22.92;55.26;97123.00;29395;197;63009;-53
2023/07/10 02:19:36;;;;;;;0.20;0.20;;;;;;;22.92;55.23;97121.03;29395;219;63005;-65
2023/07/10 02:20:11;;;;;;;0.20;0.20;;;;;;;22.91;56.06;97126.94;29395;202;63009;-64
2023/07/10 02:20:44;;;;;;;0.20;0.20;;;;;;;22.91;56.01;97121.38;29395;213;63011;-52
2023/07/10 02:21:15;;;;;;;0.20;0.20;;;;;;;22.91;55.45;97115.84;29395;212;63009;-53
2023/07/10 02:21:47;;;;;;;0.20;0.20;;;;;;;22.91;55.36;97124.16;29395;272;63005;-53
2023/07/10 02:22:18;;;;;;;0.20;0.20;;;;;;;22.90;55.41;97111.50;29394;379;64013;-52
2023/07/10 02:22:49;;;;;;;0.20;0.20;;;;;;;22.90;55.50;97117.81;29395;208;63004;-53
2023/07/10 02:23:22;;;;;;;0.20;0.20;;;;;;;22.90;55.28;97117.81;29395;255;63009;-53
2023/07/10 02:23:53;;;;;;;0.20;0.20;;;;;;;22.90;55.98;97119.78;29395;197;63015;-53
2023/07/10 02:24:24;;;;;;;0.20;0.20;;;;;;;22.90;55.25;97117.03;29395;220;63009;-53
2023/07/10 02:24:56;;;;;;;0.20;0.20;;;;;;;22.91;55.45;97113.09;29395;214;63004;-53
2023/07/10 02:25:27;;;;;;;0.20;0.20;;;;;;;22.90;55.04;97111.50;29395;252;63008;-53
2023/07/10 02:26:01;;;;;;;0.20;0.20;;;;;;;22.90;55.74;97111.50;29395;244;63005;-53
2023/07/10 02:26:33;;;;;;;0.30;0.30;;;;;;;22.90;56.35;97111.50;29395;253;63009;-54
2023/07/10 02:27:05;;;;;;;0.20;0.20;;;;;;;22.89;55.70;97109.88;29395;230;63015;-54
2023/07/10 02:27:39;;;;;;;0.25;0.25;;;;;;;22.89;55.71;97116.22;29394;199;64013;-65
2023/07/10 02:28:10;;;;;;;0.25;0.25;;;;;;;22.89;55.83;97109.88;29395;221;63005;-53
2023/07/10 02:28:41;;;;;;;0.20;0.20;;;;;;;22.88;56.16;97113.81;29395;265;63009;-53
2023/07/10 02:29:13;;;;;;;0.20;0.20;;;;;;;22.88;56.55;97111.06;29395;258;63008;-64
2023/07/10 02:29:44;;;;;;;0.20;0.20;;;;;;;22.87;55.82;97106.72;29395;262;63009;-53
2023/07/10 02:30:16;;;;;;;0.20;0.20;;;;;;;22.88;55.60;97100.00;29395;212;63004;-53
2023/07/10 02:30:48;;;;;;;0.20;0.20;;;;;;;22.88;55.93;97100.00;29395;197;63009;-53
2023/07/10 02:31:20;;;;;;;0.20;0.20;;;;;;;22.87;55.82;97106.72;29395;224;63004;-53
2023/07/10 02:31:52;;;;;;;0.30;0.30;;;;;;;22.88;55.47;97102.75;29395;196;63008;-52
2023/07/10 02:32:24;;;;;;;0.20;0.20;;;;;;;22.89;55.99;97107.13;29395;243;63004;-53
2023/07/10 02:32:55;;;;;;;0.20;0.20;;;;;;;22.89;55.44;97109.88;29394;254;64013;-53
2023/07/10 02:33:27;;;;;;;0.30;0.30;;;;;;;22.89;55.92;97109.88;29395;210;63005;-52
2023/07/10 02:33:58;;;;;;;0.20;0.20;;;;;;;22.89;55.64;97110.69;29395;228;63009;-53
2023/07/10 02:34:29;;;;;;;0.30;0.30;;;;;;;22.89;55.86;97104.34;29395;246;63005;-53
2023/07/10 02:35:00;;;;;;;0.30;0.30;;;;;;;22.90;55.85;97111.50;29395;220;63009;-52
2023/07/10 02:35:32;;;;;;;0.20;0.20;;;;;;;22.90;56.01;97111.50;29395;231;63010;-53
2023/07/10 02:36:04;;;;;;;0.20;0.20;;;;;;;22.90;55.85;97105.97;29394;213;64013;-53
2023/07/10 02:36:36;;;;;;;0.20;0.20;;;;;;;22.90;55.81;97111.50;29395;221;63000;-53
2023/07/10 02:37:07;;;;;;;0.20;0.20;;;;;;;22.88;56.47;97113.81;29395;254;63009;-53
2023/07/10 02:37:38;;;;;;;0.30;0.30;;;;;;;22.88;56.12;97113.81;29394;202;64009;-53
2023/07/10 02:38:09;;;;;;;0.20;0.20;;;;;;;22.87;56.62;97113.03;29395;221;63009;-64
2023/07/10 02:38:40;;;;;;;0.30;0.30;;;;;;;22.87;56.15;97117.78;29394;219;64009;-53
2023/07/10 02:39:12;;;;;;;0.30;0.30;;;;;;;22.87;56.42;97117.78;29395;229;63009;-64
2023/07/10 02:39:43;;;;;;;0.20;0.20;;;;;;;22.87;56.29;97121.31;29395;287;63004;-53
2023/07/10 02:40:15;;;;;;;0.30;0.30;;;;;;;22.86;55.96;97124.47;29395;203;63009;-53
2023/07/10 02:40:47;;;;;;;0.20;0.20;;;;;;;22.85;56.32;97126.44;29395;202;63005;-53
2023/07/10 02:41:18;;;;;;;0.20;0.20;;;;;;;22.85;56.25;97131.19;29395;203;63009;-54
2023/07/10 02:41:49;;;;;;;0.30;0.30;;;;;;;22.84;56.83;97141.44;29395;211;63005;-53
2023/07/10 02:42:21;;;;;;;0.20;0.20;;;;;;;22.84;56.31;97140.66;29395;218;63009;-52
2023/07/10 02:42:52;;;;;;;0.20;0.20;;;;;;;22.83;56.95;97147.34;29395;227;63008;-52
2023/07/10 02:43:26;;;;;;;0.30;0.30;;;;;;;22.82;56.88;97151.28;29394;218;64013;-53
2023/07/10 02:43:57;;;;;;;0.20;0.20;;;;;;;22.82;57.33;97148.50;29394;257;64005;-52
2023/07/10 02:44:30;;;;;;;0.20;0.20;;;;;;;22.81;57.11;97158.78;29395;223;63009;-52